Time;durP1;ratioP1;P1;durP2;ratioP2;P2;SDS_P1;SDS_P2;PMS_P1;PMS_P2;Temp;Humidity;BMP_temperature;BMP_pressure;BME280_temperature;BME280_humidity;BME280_pressure;Samples;Min_cycle;Max_cycle;Signal;HPM_P1;HPM_P2
2021/12/12 00:01:45;;;;;;;13.13;8.78;;;;;;;6.21;99.35;99921.02;1720604;83;20988;-67
2021/12/12 00:04:15;;;;;;;12.13;9.40;;;;;;;6.21;99.17;99929.23;1687983;85;20969;-68
2021/12/12 00:06:55;;;;;;;11.57;8.70;;;;;;;6.19;98.99;99930.09;1720654;83;21055;-67
2021/12/12 00:09:32;;;;;;;13.75;10.40;;;;;;;6.18;98.88;99931.17;1663995;85;21065;-68
2021/12/12 00:12:03;;;;;;;13.20;9.85;;;;;;;6.15;98.66;99945.41;1720559;83;21027;-66
2021/12/12 00:14:32;;;;;;;12.93;9.48;;;;;;;6.11;98.64;99945.15;1687638;85;21544;-66
2021/12/12 00:16:59;;;;;;;13.35;9.63;;;;;;;6.09;98.59;99952.27;1720782;82;21004;-67
2021/12/12 00:19:29;;;;;;;13.48;10.23;;;;;;;6.07;98.68;99959.94;1720629;83;21107;-64
2021/12/12 00:22:00;;;;;;;15.53;10.10;;;;;;;6.07;98.70;99971.45;1695899;83;21047;-66
2021/12/12 00:24:26;;;;;;;13.43;10.70;;;;;;;6.07;98.88;99974.19;1664104;85;21102;-67
2021/12/12 00:26:55;;;;;;;17.17;11.10;;;;;;;6.06;98.79;99973.36;1695802;83;20992;-68
2021/12/12 00:29:21;;;;;;;17.23;12.43;;;;;;;6.07;98.86;99965.98;1664277;85;21013;-69
2021/12/12 00:31:51;;;;;;;20.77;13.03;;;;;;;6.06;98.77;99970.63;1720339;83;21737;-68
2021/12/12 00:34:17;;;;;;;16.02;11.00;;;;;;;6.04;98.81;99961.83;1687690;85;20900;-68
2021/12/12 00:36:44;;;;;;;15.68;11.12;;;;;;;6.04;98.86;99960.47;1721094;83;20963;-68
2021/12/12 00:39:20;;;;;;;13.62;10.68;;;;;;;6.01;98.73;99960.20;1664186;85;20968;-67
2021/12/12 00:42:04;;;;;;;14.68;10.68;;;;;;;6.01;98.96;99960.20;1720184;82;20908;-68
2021/12/12 00:44:32;;;;;;;16.55;10.08;;;;;;;6.02;99.05;99962.66;1687837;85;21037;-68
2021/12/12 00:47:01;;;;;;;13.10;10.85;;;;;;;6.05;99.18;99970.36;1720315;83;20976;-68
2021/12/12 00:49:29;;;;;;;14.83;10.28;;;;;;;6.08;99.23;99964.87;1687774;85;20988;-68
2021/12/12 00:51:55;;;;;;;13.80;10.20;;;;;;;6.09;99.25;99967.32;1720573;83;21000;-66
2021/12/12 00:54:22;;;;;;;12.03;9.78;;;;;;;6.12;99.25;99957.75;1664638;85;21177;-68
2021/12/12 00:56:50;;;;;;;15.58;10.15;;;;;;;6.13;99.22;99958.55;1720612;83;21137;-68
2021/12/12 00:59:16;;;;;;;13.50;10.00;;;;;;;6.15;99.32;99970.04;1687738;85;21091;-68
2021/12/12 01:01:48;;;;;;;17.52;11.60;;;;;;;6.17;99.23;99967.85;1720702;83;20995;-68
2021/12/12 01:04:31;;;;;;;16.67;11.45;;;;;;;6.17;99.16;99965.11;1664302;85;20944;-67
2021/12/12 01:07:06;;;;;;;15.88;11.03;;;;;;;6.19;99.20;99977.98;1696510;83;20923;-67
2021/12/12 01:09:37;;;;;;;21.00;14.53;;;;;;;6.21;99.25;99977.95;1687882;85;21075;-68
2021/12/12 01:12:10;;;;;;;22.67;14.07;;;;;;;6.21;99.28;99981.23;1720787;83;20920;-67
2021/12/12 01:14:42;;;;;;;24.23;14.60;;;;;;;6.21;99.36;99983.42;1687794;84;21039;-68
2021/12/12 01:17:22;;;;;;;20.92;14.07;;;;;;;6.24;99.44;99986.17;1720891;83;20976;-67
2021/12/12 01:20:01;;;;;;;24.07;16.07;;;;;;;6.24;99.50;99978.50;1663651;85;21573;-65
2021/12/12 01:22:33;;;;;;;28.92;16.42;;;;;;;6.26;99.55;99977.11;1720870;83;21089;-67
2021/12/12 01:25:05;;;;;;;;;;;;;;;6.27;99.67;99977.39;1690185;84;20973;-67
2021/12/12 01:27:32;;;;;;;25.90;15.55;;;;;;;6.27;99.63;99982.87;1720019;83;20098;-67
2021/12/12 01:30:01;;;;;;;26.87;16.50;;;;;;;6.25;99.58;99980.13;1664438;85;21024;-68
2021/12/12 01:32:31;;;;;;;27.58;17.65;;;;;;;6.22;99.67;99989.73;1695772;83;21528;-68
2021/12/12 01:34:57;;;;;;;31.23;17.35;;;;;;;6.23;99.74;99989.19;1664020;85;21202;-67
2021/12/12 01:40:08;;;;;;;24.35;15.13;;;;;;;6.21;99.77;99993.55;1687774;83;21179;-67
2021/12/12 01:42:47;;;;;;;24.32;15.60;;;;;;;6.17;99.67;99997.95;1719752;83;21460;-68
2021/12/12 01:45:25;;;;;;;26.60;15.95;;;;;;;6.13;99.79;99999.59;1687822;85;20897;-68
2021/12/12 01:48:02;;;;;;;25.20;16.23;;;;;;;6.11;99.95;100007.28;1696222;83;20929;-68
2021/12/12 01:50:39;;;;;;;24.92;15.03;;;;;;;6.08;100.00;100002.63;1687220;85;21021;-68
2021/12/12 01:53:10;;;;;;;22.27;15.23;;;;;;;6.07;100.00;100006.45;1720470;83;21004;-67
2021/12/12 01:55:59;;;;;;;18.27;13.70;;;;;;;6.07;100.00;100007.02;1687972;85;21489;-66
2021/12/12 01:58:30;;;;;;;22.30;13.93;;;;;;;6.06;100.00;100002.63;1720919;83;20880;-67
2021/12/12 02:01:04;;;;;;;23.52;15.20;;;;;;;6.07;100.00;99990.60;1664407;85;21057;-67
2021/12/12 02:03:34;;;;;;;20.35;14.30;;;;;;;6.09;100.00;99988.38;1720408;83;20984;-68
2021/12/12 02:06:01;;;;;;;19.85;13.58;;;;;;;6.12;100.00;100001.53;1665039;85;21016;-68
2021/12/12 02:08:33;;;;;;;19.98;14.10;;;;;;;6.12;100.00;100004.81;1696936;83;20979;-68
2021/12/12 02:11:07;;;;;;;20.50;13.53;;;;;;;6.11;100.00;100008.66;1665349;85;20997;-68
2021/12/12 02:13:43;;;;;;;20.37;13.00;;;;;;;6.08;100.00;100012.75;1720771;83;21975;-67
2021/12/12 02:16:11;;;;;;;20.52;13.30;;;;;;;6.10;100.00;100018.77;1688003;85;20901;-67
2021/12/12 02:18:45;;;;;;;22.45;13.72;;;;;;;6.07;100.00;100015.23;1693762;83;21031;-67
2021/12/12 02:21:27;;;;;;;23.10;15.13;;;;;;;6.08;100.00;100019.05;1673291;84;21020;-67
2021/12/12 02:35:15;;;;;;;18.25;12.75;;;;;;;6.05;100.00;100020.98;1693458;84;20973;-68
2021/12/12 02:37:34;;;;;;;16.93;12.68;;;;;;;6.04;100.00;100022.02;1693005;83;21043;-67
2021/12/12 02:40:05;;;;;;;17.60;12.58;;;;;;;6.07;100.00;100018.76;1693568;83;21200;-67
2021/12/12 02:42:33;;;;;;;19.02;13.18;;;;;;;6.11;100.00;100023.70;1693912;83;21473;-67
2021/12/12 02:45:02;;;;;;;16.97;12.03;;;;;;;6.12;100.00;100018.48;1693535;84;20936;-67
2021/12/12 02:47:35;;;;;;;20.50;13.00;;;;;;;6.14;100.00;100014.36;1713732;83;20975;-68
2021/12/12 02:50:10;;;;;;;26.02;12.40;;;;;;;6.17;100.00;100017.11;1674625;84;21112;-68
2021/12/12 02:52:36;;;;;;;17.77;12.13;;;;;;;6.18;100.00;100011.35;1673382;84;21078;-67
2021/12/12 02:55:09;;;;;;;19.60;12.35;;;;;;;6.21;100.00;100018.17;1693503;83;20869;-67
2021/12/12 02:57:38;;;;;;;16.67;11.40;;;;;;;6.23;100.00;100020.09;1693458;84;21060;-66
2021/12/12 03:00:09;;;;;;;16.80;11.45;;;;;;;6.25;100.00;100017.07;1713896;83;20928;-67
2021/12/12 03:02:45;;;;;;;14.50;10.68;;;;;;;6.22;100.00;100014.36;1693269;83;21031;-67
2021/12/12 03:05:07;;;;;;;15.80;11.88;;;;;;;6.23;100.00;100017.35;1712957;83;21137;-67
2021/12/12 03:07:35;;;;;;;15.38;11.22;;;;;;;6.23;100.00;100021.45;1693527;84;21033;-66
2021/12/12 03:10:02;;;;;;;16.55;10.78;;;;;;;6.25;100.00;100019.80;1693583;83;20912;-67
2021/12/12 03:12:34;;;;;;;18.20;11.70;;;;;;;6.20;100.00;100020.65;1693426;84;21509;-68
2021/12/12 03:15:16;;;;;;;17.98;11.50;;;;;;;6.15;100.00;100028.33;1713978;83;20988;-67
2021/12/12 03:17:43;;;;;;;20.72;11.43;;;;;;;6.15;100.00;100024.77;1675117;84;21441;-68
2021/12/12 03:20:25;;;;;;;17.17;11.15;;;;;;;6.14;100.00;100031.34;1720556;83;20949;-68
2021/12/12 03:23:26;;;;;;;18.23;12.00;;;;;;;6.14;100.00;100030.78;1687803;85;20973;-68
2021/12/12 03:26:01;;;;;;;18.65;12.40;;;;;;;6.10;100.00;100036.55;1695694;83;20953;-68
2021/12/12 03:28:32;;;;;;;19.07;12.28;;;;;;;6.08;100.00;100036.83;1687147;85;21051;-68
2021/12/12 03:31:03;;;;;;;17.62;10.98;;;;;;;6.09;100.00;100037.63;1720378;83;21027;-67
2021/12/12 03:33:32;;;;;;;18.95;12.00;;;;;;;6.09;100.00;100043.11;1687768;85;20941;-68
2021/12/12 03:36:02;;;;;;;18.77;11.43;;;;;;;6.09;100.00;100042.56;1720793;83;20924;-68
2021/12/12 03:38:32;;;;;;;17.80;11.50;;;;;;;6.12;100.00;100045.85;1688006;85;21056;-67
2021/12/12 03:41:03;;;;;;;19.42;11.97;;;;;;;6.12;100.00;100042.58;1695689;83;21024;-67
2021/12/12 03:43:30;;;;;;;22.17;12.45;;;;;;;6.14;100.00;100041.73;1664379;85;21721;-67
2021/12/12 03:45:56;;;;;;;18.62;11.53;;;;;;;6.13;100.00;100046.11;1695665;83;20936;-67
2021/12/12 03:48:30;;;;;;;22.67;12.35;;;;;;;6.12;100.00;100043.11;1664564;85;21012;-68
2021/12/12 03:51:00;;;;;;;19.80;11.50;;;;;;;6.12;100.00;100043.11;1720870;83;20987;-68
2021/12/12 03:53:27;;;;;;;19.87;13.05;;;;;;;6.12;100.00;100048.59;1688051;85;21591;-67
2021/12/12 03:55:54;;;;;;;19.77;12.58;;;;;;;6.11;100.00;100044.22;1720472;83;21083;-68
2021/12/12 03:58:21;;;;;;;21.33;11.63;;;;;;;6.11;100.00;100045.59;1688004;85;21007;-68
2021/12/12 04:01:06;;;;;;;18.40;12.30;;;;;;;6.13;100.00;100050.22;1695753;83;21475;-68
2021/12/12 04:03:35;;;;;;;17.12;10.80;;;;;;;6.15;100.00;100053.50;1687477;84;20960;-67
2021/12/12 04:06:05;;;;;;;22.32;12.70;;;;;;;6.17;100.00;100052.14;1720629;83;20904;-67
2021/12/12 04:08:40;;;;;;;17.77;11.55;;;;;;;6.18;100.00;100052.94;1664063;85;21128;-68
2021/12/12 04:11:09;;;;;;;;;;;;;;;6.20;100.00;100052.12;1723210;83;20873;-67
2021/12/12 04:13:40;;;;;;;20.52;11.20;;;;;;;6.21;100.00;100056.48;1700830;84;20178;-67
2021/12/12 04:16:07;;;;;;;17.07;10.88;;;;;;;6.19;100.00;100062.23;1696600;83;20983;-68
2021/12/12 04:18:35;;;;;;;24.63;11.48;;;;;;;6.21;100.00;100057.85;1720584;83;20884;-68
2021/12/12 04:21:03;;;;;;;18.87;11.30;;;;;;;6.23;100.00;100049.39;1720836;83;21070;-67
2021/12/12 04:23:31;;;;;;;18.10;12.10;;;;;;;6.26;100.00;100053.73;1720572;83;20991;-68
2021/12/12 04:26:21;;;;;;;15.98;11.65;;;;;;;6.27;100.00;100055.40;1720749;83;21000;-67
2021/12/12 04:29:08;;;;;;;15.90;10.85;;;;;;;6.28;100.00;100057.02;1720658;83;20932;-68
2021/12/12 04:31:37;;;;;;;20.85;12.15;;;;;;;6.27;100.00;100055.40;1695737;83;21428;-69
2021/12/12 04:34:05;;;;;;;17.42;11.38;;;;;;;6.29;100.00;100060.59;1687834;85;21128;-68
2021/12/12 04:36:39;;;;;;;18.05;12.05;;;;;;;6.29;100.00;100057.31;1720737;83;21035;-68
2021/12/12 04:39:18;;;;;;;17.20;11.73;;;;;;;6.28;100.00;100055.66;1687778;85;21120;-68
2021/12/12 04:41:50;;;;;;;18.40;12.73;;;;;;;6.29;100.00;100051.02;1695843;83;20995;-67
2021/12/12 04:44:30;;;;;;;19.98;11.68;;;;;;;6.27;100.00;100054.03;1664127;85;20970;-68
2021/12/12 04:50:44;;;;;;;17.15;12.23;;;;;;;6.24;100.00;100061.43;1687731;85;21011;-67
2021/12/12 04:53:29;;;;;;;17.62;12.47;;;;;;;6.22;100.00;100056.78;1695228;83;21054;-68
2021/12/12 04:56:13;;;;;;;21.85;13.40;;;;;;;6.22;100.00;100060.87;1687894;85;20952;-67
2021/12/12 04:59:06;;;;;;;19.95;13.95;;;;;;;6.22;100.00;100064.98;1720737;82;21548;-68
2021/12/12 05:01:39;;;;;;;19.55;14.20;;;;;;;6.23;100.00;100054.87;1687968;85;20960;-68
2021/12/12 05:04:20;;;;;;;21.10;14.75;;;;;;;6.21;100.00;100055.12;1720129;82;21381;-69
2021/12/12 05:07:18;;;;;;;26.70;17.85;;;;;;;6.22;100.00;100066.36;1663808;85;21082;-69
2021/12/12 05:09:54;;;;;;;20.10;14.45;;;;;;;6.23;100.00;100067.19;1720742;83;20888;-68
2021/12/12 05:12:44;;;;;;;19.80;13.98;;;;;;;6.20;100.00;100059.80;1687937;85;21004;-69
2021/12/12 05:15:15;;;;;;;21.65;15.45;;;;;;;6.19;100.00;100064.17;1720127;83;22100;-67
2021/12/12 05:17:52;;;;;;;21.95;14.68;;;;;;;6.18;100.00;100062.52;1685702;84;21008;-67
2021/12/12 05:20:24;;;;;;;24.98;15.98;;;;;;;6.18;100.00;100059.78;1683354;84;20968;-68
2021/12/12 05:22:54;;;;;;;25.32;16.57;;;;;;;6.19;100.00;100064.98;1642724;86;20979;-68
2021/12/12 05:25:27;;;;;;;23.47;15.75;;;;;;;6.19;100.00;100064.98;1693845;84;20952;-68
2021/12/12 05:27:56;;;;;;;21.50;15.53;;;;;;;6.19;100.00;100069.08;1675767;85;21152;-67
2021/12/12 05:30:27;;;;;;;25.23;17.30;;;;;;;6.18;100.00;100067.45;1694871;84;21448;-66
2021/12/12 05:32:54;;;;;;;22.45;15.28;;;;;;;6.17;100.00;100072.66;1661771;85;21505;-69
2021/12/12 05:35:24;;;;;;;22.50;15.48;;;;;;;6.13;100.00;100077.58;1695301;84;21035;-70
2021/12/12 05:37:53;;;;;;;20.92;16.20;;;;;;;6.09;100.00;100080.05;1664379;86;20964;-69
2021/12/12 05:40:22;;;;;;;20.05;14.87;;;;;;;6.08;100.00;100073.77;1671941;84;21067;-68
2021/12/12 05:42:57;;;;;;;21.57;15.08;;;;;;;6.07;100.00;100080.89;1693765;84;21039;-68
2021/12/12 05:45:23;;;;;;;22.67;15.93;;;;;;;6.06;100.00;100088.80;1676018;85;20885;-68
2021/12/12 05:47:53;;;;;;;21.97;15.08;;;;;;;6.05;100.00;100085.81;1693749;84;20992;-67
2021/12/12 05:50:25;;;;;;;23.80;16.00;;;;;;;6.04;100.00;100087.69;1693828;84;20900;-69
2021/12/12 05:52:54;;;;;;;27.30;16.65;;;;;;;6.04;100.00;100095.09;1693706;84;21546;-68
2021/12/12 05:55:23;;;;;;;26.23;16.10;;;;;;;6.02;100.00;100098.08;1664753;86;21000;-69
2021/12/12 05:57:54;;;;;;;25.90;16.55;;;;;;;6.01;100.00;100096.45;1695189;84;20956;-69
2021/12/12 06:00:22;;;;;;;23.05;15.95;;;;;;;6.00;100.00;100103.56;1664328;86;21531;-69
2021/12/12 06:02:48;;;;;;;23.67;17.40;;;;;;;6.00;100.00;100110.41;1671584;84;21039;-67
2021/12/12 06:05:17;;;;;;;25.08;17.52;;;;;;;6.01;100.00;100118.34;1664231;85;21278;-71
2021/12/12 06:07:43;;;;;;;27.58;18.37;;;;;;;6.00;100.00;100114.52;1693669;84;20901;-67
2021/12/12 06:10:12;;;;;;;25.55;17.85;;;;;;;5.97;100.00;100113.16;1664301;86;21040;-67
2021/12/12 06:12:43;;;;;;;27.48;17.67;;;;;;;5.93;100.00;100121.63;1693747;84;21023;-68
2021/12/12 06:15:16;;;;;;;25.82;17.77;;;;;;;5.89;100.00;100120.52;1661959;85;21071;-67
2021/12/12 06:17:44;;;;;;;26.02;18.02;;;;;;;5.83;100.00;100116.41;1694172;84;21117;-69
2021/12/12 06:20:12;;;;;;;26.12;17.73;;;;;;;5.78;100.00;100119.18;1664353;85;20904;-68
2021/12/12 06:22:39;;;;;;;28.70;18.75;;;;;;;5.78;100.00;100126.02;1641219;86;21604;-69
2021/12/12 06:25:07;;;;;;;24.15;16.42;;;;;;;5.77;100.00;100133.92;1664435;86;21429;-68
2021/12/12 06:27:34;;;;;;;24.55;17.40;;;;;;;5.75;100.00;100128.47;1644170;87;21559;-69
2021/12/12 06:30:00;;;;;;;25.97;17.23;;;;;;;5.69;100.00;100130.38;1711723;83;21080;-68
2021/12/12 06:32:27;;;;;;;24.00;16.48;;;;;;;5.68;100.00;100132.84;1711686;83;21530;-68
2021/12/12 06:34:56;;;;;;;26.52;16.45;;;;;;;5.67;100.00;100140.22;1711690;83;21508;-70
2021/12/12 06:37:23;;;;;;;24.60;16.87;;;;;;;5.66;100.00;100137.76;1711681;83;20913;-69
2021/12/12 06:39:52;;;;;;;25.37;15.45;;;;;;;5.63;100.00;100148.67;1711755;82;20919;-69
2021/12/12 06:42:19;;;;;;;21.02;15.32;;;;;;;5.60;100.00;100155.52;1712058;83;21526;-68
2021/12/12 06:44:49;;;;;;;22.48;16.05;;;;;;;5.58;100.00;100157.70;1711718;83;20970;-68
2021/12/12 06:47:17;;;;;;;23.35;16.62;;;;;;;5.54;100.00;100155.25;1691632;83;21439;-69
2021/12/12 06:49:47;;;;;;;23.70;15.28;;;;;;;5.51;100.00;100152.23;1711582;83;20927;-67
2021/12/12 06:52:16;;;;;;;20.12;13.68;;;;;;;5.45;100.00;100154.12;1691573;83;20935;-69
2021/12/12 06:54:43;;;;;;;22.58;14.65;;;;;;;5.44;100.00;100151.12;1691384;83;21089;-68
2021/12/12 06:57:12;;;;;;;21.37;14.90;;;;;;;5.41;100.00;100158.50;1711943;83;20919;-69
2021/12/12 06:59:42;;;;;;;19.27;14.25;;;;;;;5.37;100.00;100158.22;1711758;83;21350;-68
2021/12/12 07:02:10;;;;;;;21.12;14.20;;;;;;;5.35;100.00;100153.55;1711699;83;20974;-67
2021/12/12 07:04:39;;;;;;;25.10;15.50;;;;;;;5.35;100.00;100161.22;1711759;83;20986;-69
2021/12/12 07:07:06;;;;;;;19.90;13.55;;;;;;;5.35;100.00;100164.48;1691274;83;21057;-67
2021/12/12 07:09:36;;;;;;;22.32;14.15;;;;;;;5.33;100.00;100170.22;1711689;83;21002;-70
2021/12/12 07:12:08;;;;;;;18.82;13.15;;;;;;;5.31;100.00;100175.66;1711800;83;20836;-68
2021/12/12 07:14:36;;;;;;;18.90;13.10;;;;;;;5.31;100.00;100179.23;1711650;83;20966;-69
2021/12/12 07:17:08;;;;;;;22.75;12.65;;;;;;;5.30;100.00;100174.87;1711766;83;21041;-70
2021/12/12 07:19:40;;;;;;;20.30;13.30;;;;;;;5.31;100.00;100180.59;1708699;83;21092;-69
2021/12/12 07:22:08;;;;;;;17.60;13.00;;;;;;;5.29;100.00;100173.20;1707407;84;20887;-69
2021/12/12 07:24:37;;;;;;;19.10;12.13;;;;;;;5.27;100.00;100172.64;1683763;84;20836;-70
2021/12/12 07:27:06;;;;;;;18.90;12.93;;;;;;;5.26;100.00;100174.28;1707074;84;20943;-68
2021/12/12 07:29:37;;;;;;;20.72;12.50;;;;;;;5.22;100.00;100169.92;1707188;84;21436;-69
2021/12/12 07:32:05;;;;;;;18.80;12.68;;;;;;;5.19;100.00;100180.00;1707018;83;20973;-69
2021/12/12 07:34:35;;;;;;;18.60;13.48;;;;;;;5.17;100.00;100180.27;1706751;84;20971;-66
2021/12/12 07:37:06;;;;;;;17.27;12.50;;;;;;;5.13;100.00;100175.08;1688878;84;20927;-68
2021/12/12 07:39:35;;;;;;;23.10;12.33;;;;;;;5.14;100.00;100185.44;1707209;82;20935;-69
2021/12/12 07:42:03;;;;;;;17.82;12.13;;;;;;;5.14;100.00;100179.44;1665850;84;21492;-69
2021/12/12 07:44:33;;;;;;;17.10;12.10;;;;;;;5.11;100.00;100174.52;1707037;84;21116;-68
2021/12/12 07:47:02;;;;;;;17.65;12.55;;;;;;;5.08;100.00;100183.25;1688529;84;21470;-69
2021/12/12 07:49:34;;;;;;;20.45;13.18;;;;;;;5.02;100.00;100183.77;1707148;84;20951;-68
2021/12/12 07:52:01;;;;;;;19.25;12.63;;;;;;;4.96;100.00;100182.11;1707171;83;20955;-68
2021/12/12 07:54:27;;;;;;;18.75;13.15;;;;;;;4.95;100.00;100189.47;1688858;84;21066;-69
2021/12/12 07:56:54;;;;;;;19.95;12.93;;;;;;;4.91;100.00;100197.10;1707203;84;21239;-67
2021/12/12 07:59:26;;;;;;;18.57;12.10;;;;;;;4.85;100.00;100190.25;1688495;84;38534;-69
2021/12/12 08:01:54;;;;;;;18.37;13.45;;;;;;;4.81;100.00;100192.41;1689107;84;21055;-68
2021/12/12 08:04:24;;;;;;;19.40;12.25;;;;;;;4.74;100.00;100198.91;1707063;84;20982;-68
2021/12/12 08:06:53;;;;;;;17.45;11.60;;;;;;;4.73;100.00;100195.08;1707144;84;20915;-69
2021/12/12 08:09:26;;;;;;;23.67;12.28;;;;;;;4.73;100.00;100191.82;1707068;84;21549;-69
2021/12/12 08:11:55;;;;;;;20.35;13.35;;;;;;;4.71;100.00;100193.98;1706324;83;20935;-70
2021/12/12 08:14:27;;;;;;;19.40;11.73;;;;;;;4.68;100.00;100195.88;1688733;84;21476;-68
2021/12/12 08:16:55;;;;;;;23.18;14.40;;;;;;;4.69;100.00;100204.91;1707198;84;20940;-69
2021/12/12 08:19:25;;;;;;;20.12;12.95;;;;;;;4.68;100.00;100191.79;1704667;84;20947;-69
2021/12/12 08:22:04;;;;;;;23.92;13.72;;;;;;;4.66;100.00;100193.95;1690374;83;21022;-69
2021/12/12 08:24:38;;;;;;;18.37;12.82;;;;;;;4.66;100.00;100197.25;1671527;85;21000;-69
2021/12/12 08:27:09;;;;;;;21.17;12.55;;;;;;;4.67;100.00;100194.78;1696005;83;20960;-70
2021/12/12 08:29:42;;;;;;;23.62;14.20;;;;;;;4.65;100.00;100195.59;1671515;85;20979;-70
2021/12/12 08:32:11;;;;;;;22.05;13.03;;;;;;;4.61;100.00;100198.84;1718567;83;21115;-67
2021/12/12 08:34:45;;;;;;;23.32;14.15;;;;;;;4.59;100.00;100203.73;1671684;85;20952;-69
2021/12/12 08:37:16;;;;;;;24.47;14.97;;;;;;;4.59;100.00;100198.84;1718830;83;21429;-69
2021/12/12 08:39:45;;;;;;;24.35;13.98;;;;;;;4.58;100.00;100202.11;1671581;85;21484;-70
2021/12/12 08:42:12;;;;;;;24.52;14.30;;;;;;;4.60;100.00;100207.30;1718725;83;21457;-69
2021/12/12 08:44:39;;;;;;;24.95;13.98;;;;;;;4.60;100.00;100210.03;1660112;85;20992;-69
2021/12/12 08:47:09;;;;;;;21.65;13.95;;;;;;;4.59;100.00;100202.94;1682186;85;21532;-70
2021/12/12 08:49:38;;;;;;;21.15;14.10;;;;;;;4.57;100.00;100204.54;1682125;83;20945;-70
2021/12/12 08:52:22;;;;;;;23.77;12.82;;;;;;;4.53;100.00;100204.80;1660312;85;20965;-68
2021/12/12 08:54:53;;;;;;;;;;;;;;;4.51;100.00;100201.50;1684462;85;21509;-69
2021/12/12 08:57:49;;;;;;;;;;;;;;;;;;;;;
2021/12/12 09:00:08;;;;;;;23.12;13.20;;;;;;;4.55;100.00;100205.37;1671493;85;21099;-68
2021/12/12 09:02:41;;;;;;;26.48;14.55;;;;;;;4.55;100.00;100206.73;1681865;85;20929;-70
2021/12/12 09:05:17;;;;;;;21.82;12.63;;;;;;;4.57;100.00;100212.73;1681878;84;21020;-69
2021/12/12 09:07:49;;;;;;;23.42;13.15;;;;;;;4.57;100.00;100211.36;1682256;85;20953;-67
2021/12/12 09:10:25;;;;;;;22.60;12.63;;;;;;;4.57;100.00;100210.00;1682081;84;21485;-69
2021/12/12 09:12:59;;;;;;;21.50;12.35;;;;;;;4.59;100.00;100213.30;1682262;85;21112;-68
2021/12/12 09:15:38;;;;;;;23.35;13.72;;;;;;;4.59;100.00;100207.03;1659975;84;20944;-67
2021/12/12 09:18:12;;;;;;;22.02;13.08;;;;;;;4.59;100.00;100209.20;1681973;84;20977;-69
2021/12/12 09:20:49;;;;;;;22.13;13.60;;;;;;;4.61;100.00;100201.58;1683299;84;21021;-69
2021/12/12 09:23:20;;;;;;;21.68;13.13;;;;;;;4.62;100.00;100200.48;1721004;83;21043;-69
2021/12/12 09:26:02;;;;;;;22.22;13.32;;;;;;;4.65;100.00;100198.31;1688104;85;21127;-69
2021/12/12 09:28:58;;;;;;;23.50;13.25;;;;;;;4.65;100.00;100198.31;1700549;84;20991;-68
2021/12/12 09:31:30;;;;;;;18.15;11.90;;;;;;;4.66;100.00;100196.69;1674596;84;20868;-69
2021/12/12 09:34:09;;;;;;;26.10;13.00;;;;;;;4.69;100.00;100194.78;1671464;85;21014;-69
2021/12/12 09:36:55;;;;;;;22.02;13.62;;;;;;;4.68;100.00;100194.52;1688907;84;21001;-68
2021/12/12 09:39:40;;;;;;;21.48;13.53;;;;;;;4.69;100.00;100200.81;1728523;81;21036;-68
2021/12/12 09:42:55;;;;;;;20.12;12.70;;;;;;;4.69;100.00;100200.25;1664518;85;20940;-70
2021/12/12 09:46:01;;;;;;;17.55;11.05;;;;;;;4.71;100.00;100202.17;1720588;83;20872;-68
2021/12/12 09:52:15;;;;;;;17.10;9.93;;;;;;;4.71;100.00;100198.08;1720704;83;21067;-71
2021/12/12 09:55:11;;;;;;;22.20;12.05;;;;;;;4.69;100.00;100199.45;1687275;85;22054;-69
2021/12/12 09:57:52;;;;;;;21.55;13.65;;;;;;;4.67;100.00;100198.34;1719249;83;20959;-67
2021/12/12 10:00:30;;;;;;;22.95;13.45;;;;;;;4.63;100.00;100198.58;1687747;84;21484;-69
2021/12/12 10:03:23;;;;;;;25.92;14.25;;;;;;;4.62;100.00;100192.29;1720207;82;20944;-69
2021/12/12 10:06:15;;;;;;;20.37;12.55;;;;;;;4.62;100.00;100203.77;1687557;85;21064;-68
2021/12/12 10:09:24;;;;;;;17.50;11.30;;;;;;;4.60;100.00;100206.77;1688475;83;20932;-69
2021/12/12 10:12:12;;;;;;;20.62;12.58;;;;;;;4.59;100.00;100207.83;1778214;80;21410;-70
2021/12/12 10:15:00;;;;;;;19.75;11.03;;;;;;;4.60;100.00;100211.39;1754012;80;20953;-68
2021/12/12 10:17:48;;;;;;;17.92;10.80;;;;;;;4.61;100.00;100204.30;1778161;80;20973;-70
2021/12/12 10:20:38;;;;;;;22.37;11.90;;;;;;;4.60;100.00;100199.95;1778189;80;20991;-68
2021/12/12 10:23:34;;;;;;;16.62;10.75;;;;;;;4.57;100.00;100193.62;1777664;80;21071;-70
2021/12/12 10:26:16;;;;;;;19.35;11.25;;;;;;;4.60;100.00;100195.84;1778222;80;21042;-70
2021/12/12 10:28:54;;;;;;;20.88;12.53;;;;;;;4.61;100.00;100194.75;1753920;80;21011;-69
2021/12/12 10:31:30;;;;;;;15.95;11.03;;;;;;;4.59;100.00;100192.82;1778132;80;20928;-68
2021/12/12 10:34:18;;;;;;;17.80;11.28;;;;;;;4.57;100.00;100194.19;1778079;80;21033;-69
2021/12/12 10:36:56;;;;;;;16.90;10.80;;;;;;;4.56;100.00;100187.06;1776012;80;21120;-69
2021/12/12 10:39:38;;;;;;;17.02;10.80;;;;;;;4.53;100.00;100176.67;1770781;80;21008;-67
2021/12/12 10:42:14;;;;;;;19.52;11.65;;;;;;;4.48;100.00;100176.94;1778075;80;21032;-67
2021/12/12 10:44:51;;;;;;;19.42;12.23;;;;;;;4.50;100.00;100177.47;1778463;80;20937;-70
2021/12/12 10:47:30;;;;;;;18.80;11.55;;;;;;;4.54;100.00;100181.06;1777973;80;21508;-69
2021/12/12 10:50:11;;;;;;;17.98;11.43;;;;;;;4.56;100.00;100179.70;1778259;80;21849;-68
2021/12/12 10:53:00;;;;;;;21.33;12.78;;;;;;;4.59;100.00;100182.47;1777798;80;20992;-69
2021/12/12 10:56:12;;;;;;;19.98;12.33;;;;;;;4.57;100.00;100192.25;1777994;80;20972;-69
2021/12/12 10:58:47;;;;;;;21.75;12.68;;;;;;;4.48;100.00;100190.59;1778238;80;20913;-67
2021/12/12 11:01:24;;;;;;;18.95;11.43;;;;;;;4.35;99.87;100181.48;1778288;80;20957;-67
2021/12/12 11:04:17;;;;;;;20.15;12.78;;;;;;;4.31;99.97;100176.27;1770491;80;21835;-68
2021/12/12 11:07:02;;;;;;;20.80;14.07;;;;;;;4.27;100.00;100175.95;1778431;80;20980;-69
2021/12/12 11:10:02;;;;;;;19.37;11.97;;;;;;;4.21;99.79;100178.38;1778055;80;20881;-68
2021/12/12 11:12:42;;;;;;;20.60;13.25;;;;;;;4.18;99.90;100184.36;1778156;80;20933;-69
2021/12/12 11:15:25;;;;;;;21.30;12.50;;;;;;;4.15;99.92;100176.14;1753840;80;20950;-69
2021/12/12 11:18:09;;;;;;;23.07;14.58;;;;;;;4.12;99.81;100163.03;1778435;80;21780;-68
2021/12/12 11:20:42;;;;;;;30.52;18.23;;;;;;;4.08;99.82;100149.09;1778110;80;21505;-69
2021/12/12 11:23:21;;;;;;;29.45;18.37;;;;;;;4.07;99.87;100151.55;1779812;80;20875;-69
2021/12/12 11:25:59;;;;;;;26.87;17.50;;;;;;;4.07;99.97;100147.98;1778036;80;21029;-69
2021/12/12 11:28:37;;;;;;;27.20;17.40;;;;;;;4.07;99.94;100143.89;1755629;80;20987;-68
2021/12/12 11:31:16;;;;;;;30.70;17.87;;;;;;;4.06;99.90;100152.61;1780871;80;21143;-69
2021/12/12 11:33:49;;;;;;;27.62;17.40;;;;;;;4.07;99.92;100146.63;1780698;80;21477;-69
2021/12/12 11:36:22;;;;;;;24.05;15.48;;;;;;;4.08;99.97;100146.89;1778048;80;21477;-69
2021/12/12 11:39:03;;;;;;;31.87;18.77;;;;;;;4.08;99.82;100144.16;1754187;80;20886;-69
2021/12/12 11:42:05;;;;;;;25.27;17.35;;;;;;;4.07;99.75;100146.63;1777633;80;20917;-69
2021/12/12 11:44:46;;;;;;;28.70;17.93;;;;;;;4.04;99.62;100149.34;1779940;80;21901;-68
2021/12/12 11:47:54;;;;;;;29.12;16.85;;;;;;;3.98;99.33;100131.27;1753853;80;20953;-67
2021/12/12 11:50:41;;;;;;;25.30;16.23;;;;;;;3.94;99.32;100134.26;1778172;80;21481;-69
2021/12/12 11:53:12;;;;;;;27.52;17.02;;;;;;;3.91;99.38;100138.87;1778175;80;21474;-68
2021/12/12 11:55:52;;;;;;;24.52;16.95;;;;;;;3.90;99.41;100132.59;1778287;80;21020;-69
2021/12/12 11:58:31;;;;;;;24.75;16.93;;;;;;;3.88;99.44;100138.30;1755110;80;21053;-68
2021/12/12 12:01:06;;;;;;;29.12;17.90;;;;;;;3.89;99.52;100133.66;1778084;80;21497;-69
2021/12/12 12:03:55;;;;;;;23.83;15.88;;;;;;;3.89;99.49;100139.94;1778027;80;21493;-67
2021/12/12 12:06:51;;;;;;;26.23;16.80;;;;;;;3.88;99.41;100142.92;1778067;80;21419;-70
2021/12/12 12:09:45;;;;;;;28.05;17.52;;;;;;;3.83;99.37;100142.88;1777172;80;21033;-70